createdAt,value
2018-12-24T00:00:34.499Z,3.20
2018-12-24T00:03:01.987Z,3.15
2018-12-24T00:05:29.309Z,3.18
2018-12-24T00:07:57.686Z,3.04
2018-12-24T00:10:24.810Z,3.02
2018-12-24T00:12:52.495Z,2.93
2018-12-24T00:15:19.861Z,2.73
2018-12-24T00:17:47.924Z,2.69
2018-12-24T00:20:15.586Z,2.80
2018-12-24T00:22:43.243Z,3.06
2018-12-24T00:25:10.255Z,2.86
2018-12-24T00:27:37.290Z,2.75
2018-12-24T00:30:06.740Z,2.74
2018-12-24T00:32:34.414Z,2.78
2018-12-24T00:35:02.081Z,2.92
2018-12-24T00:37:30.142Z,2.67
2018-12-24T00:39:57.497Z,2.82
2018-12-24T00:42:25.150Z,2.67
2018-12-24T00:44:52.170Z,2.53
2018-12-24T00:47:19.652Z,2.57
2018-12-24T00:49:48.185Z,2.66
2018-12-24T00:52:15.490Z,2.61
2018-12-24T00:54:42.872Z,2.77
2018-12-24T00:57:13.430Z,2.51
2018-12-24T00:59:42.024Z,2.74
2018-12-24T01:02:10.027Z,2.41
2018-12-24T01:04:37.894Z,2.33
2018-12-24T01:07:05.145Z,2.33
2018-12-24T01:09:32.504Z,2.46
2018-12-24T01:12:00.268Z,2.55
2018-12-24T01:14:28.950Z,2.44
2018-12-24T01:16:56.569Z,2.49
2018-12-24T01:19:23.965Z,2.23
2018-12-24T01:21:50.968Z,2.33
2018-12-24T01:24:18.574Z,2.52
2018-12-24T01:26:45.594Z,2.30
2018-12-24T01:29:12.875Z,2.63
2018-12-24T01:31:40.226Z,2.39
2018-12-24T01:34:07.622Z,2.24
2018-12-24T01:36:34.936Z,2.17
2018-12-24T01:39:04.642Z,2.12
2018-12-24T01:41:33.330Z,2.34
2018-12-24T01:44:00.709Z,2.28
2018-12-24T01:46:28.051Z,2.50
2018-12-24T01:48:55.071Z,2.72
2018-12-24T01:51:22.447Z,2.34
2018-12-24T01:53:50.106Z,2.30
2018-12-24T01:56:17.763Z,2.30
2018-12-24T01:58:45.424Z,2.52
2018-12-24T02:01:12.457Z,2.27
2018-12-24T02:03:39.707Z,2.32
2018-12-24T02:06:06.975Z,2.00
2018-12-24T02:08:34.337Z,2.06
2018-12-24T02:11:01.686Z,2.35
2018-12-24T02:13:28.694Z,2.53
2018-12-24T02:15:55.983Z,2.52
2018-12-24T02:18:23.465Z,2.29
2018-12-24T02:20:51.116Z,2.27
2018-12-24T02:23:18.869Z,2.50
2018-12-24T02:25:46.250Z,2.47
2018-12-24T02:28:13.886Z,2.26
2018-12-24T02:30:40.895Z,2.42
2018-12-24T02:33:08.183Z,2.40
2018-12-24T02:35:35.967Z,2.39
2018-12-24T02:38:03.958Z,2.14
2018-12-24T02:40:31.372Z,2.30
2018-12-24T02:42:58.738Z,2.26
2018-12-24T02:45:26.389Z,2.29
2018-12-24T02:47:53.746Z,2.26
2018-12-24T02:50:21.104Z,2.47
2018-12-24T02:52:48.452Z,2.37
2018-12-24T02:55:16.214Z,2.22
2018-12-24T02:57:43.500Z,2.08
2018-12-24T03:00:10.922Z,2.14
2018-12-24T03:02:39.008Z,2.20
2018-12-24T03:05:06.003Z,2.15
2018-12-24T03:07:33.703Z,1.99
2018-12-24T03:10:01.477Z,1.99
2018-12-24T03:12:28.833Z,1.95
2018-12-24T03:14:56.174Z,1.99
2018-12-24T03:17:23.531Z,1.86
2018-12-24T03:19:51.491Z,2.01
2018-12-24T03:22:18.855Z,2.05
2018-12-24T03:24:46.822Z,2.21
2018-12-24T03:27:15.718Z,2.47
2018-12-24T03:29:43.379Z,2.45
2018-12-24T03:32:10.445Z,2.21
2018-12-24T03:34:38.086Z,2.24
2018-12-24T03:37:05.645Z,2.33
2018-12-24T03:39:35.146Z,2.41
2018-12-24T03:42:05.847Z,2.15
2018-12-24T03:44:33.754Z,2.45
2018-12-24T03:47:01.109Z,2.33
2018-12-24T03:49:28.977Z,2.31
2018-12-24T03:51:56.635Z,2.32
2018-12-24T03:54:24.300Z,2.61
2018-12-24T03:56:53.086Z,2.65
2018-12-24T03:59:20.747Z,2.58
2018-12-24T04:01:48.402Z,2.59
2018-12-24T04:04:15.759Z,2.64
2018-12-24T04:06:43.141Z,2.69
2018-12-24T04:09:15.211Z,2.64
2018-12-24T04:11:42.536Z,2.71
2018-12-24T04:14:09.925Z,2.57
2018-12-24T04:16:37.550Z,2.87
2018-12-24T04:19:05.462Z,2.65
2018-12-24T04:21:33.597Z,2.69
2018-12-24T04:24:01.651Z,2.87
2018-12-24T04:26:29.831Z,2.96
2018-12-24T04:28:57.799Z,2.92
2018-12-24T04:31:25.181Z,2.64
2018-12-24T04:33:52.606Z,2.55
2018-12-24T04:36:19.618Z,2.70
2018-12-24T04:38:47.600Z,2.37
2018-12-24T04:41:15.804Z,2.41
2018-12-24T04:43:43.151Z,2.11
2018-12-24T04:46:10.192Z,2.02
2018-12-24T04:48:37.967Z,2.34
2018-12-24T04:51:04.978Z,2.31
2018-12-24T04:53:32.879Z,2.37
2018-12-24T04:56:00.855Z,2.30
2018-12-24T04:58:29.334Z,2.50
2018-12-24T05:00:56.994Z,2.18
2018-12-24T05:03:24.350Z,2.32
2018-12-24T05:05:52.005Z,2.26
2018-12-24T05:08:19.806Z,2.42
2018-12-24T05:10:47.544Z,2.62
2018-12-24T05:13:15.934Z,2.71
2018-12-24T05:15:44.146Z,2.27
2018-12-24T05:18:11.755Z,2.33
2018-12-24T05:20:39.481Z,2.57
2018-12-24T05:23:07.267Z,2.44
2018-12-24T05:25:34.661Z,2.34
2018-12-24T05:28:02.295Z,2.55
2018-12-24T05:30:30.267Z,2.49
2018-12-24T05:32:57.618Z,2.58
2018-12-24T05:35:25.037Z,2.37
2018-12-24T05:37:52.735Z,2.55
2018-12-24T05:40:20.399Z,2.40
2018-12-24T05:42:49.392Z,2.37
2018-12-24T05:45:17.358Z,2.46
2018-12-24T05:47:45.299Z,2.50
2018-12-24T05:50:12.307Z,2.32
2018-12-24T05:52:40.503Z,2.55
2018-12-24T05:55:08.519Z,2.48
2018-12-24T05:57:36.633Z,2.33
2018-12-24T06:00:04.862Z,2.40
2018-12-24T06:02:32.802Z,2.35
2018-12-24T06:05:00.162Z,2.52
2018-12-24T06:07:30.203Z,2.58
2018-12-24T06:09:57.866Z,2.63
2018-12-24T06:12:25.850Z,2.37
2018-12-24T06:14:53.498Z,2.26
2018-12-24T06:17:20.874Z,2.21
2018-12-24T06:19:48.819Z,2.02
2018-12-24T06:22:16.471Z,2.07
2018-12-24T06:24:44.554Z,2.08
2018-12-24T06:27:12.521Z,2.03
2018-12-24T06:29:40.186Z,2.26
2018-12-24T06:32:07.187Z,2.03
2018-12-24T06:34:34.791Z,2.09
2018-12-24T06:37:02.454Z,2.12
2018-12-24T06:39:30.337Z,2.21
2018-12-24T06:41:58.232Z,1.98
2018-12-24T06:44:25.847Z,2.04
2018-12-24T06:46:53.203Z,1.98
2018-12-24T06:49:20.871Z,2.03
2018-12-24T06:51:49.750Z,2.03
2018-12-24T06:54:17.723Z,1.94
2018-12-24T06:56:45.930Z,2.17
2018-12-24T06:59:13.555Z,1.76
2018-12-24T07:01:40.933Z,2.10
2018-12-24T07:04:08.570Z,1.94
2018-12-24T07:06:35.574Z,1.90
2018-12-24T07:09:04.408Z,1.90
2018-12-24T07:11:32.401Z,1.73
2018-12-24T07:14:00.350Z,1.86
2018-12-24T07:16:27.710Z,1.95
2018-12-24T07:18:55.777Z,1.60
2018-12-24T07:21:26.712Z,1.69
2018-12-24T07:23:53.998Z,1.65
2018-12-24T07:26:21.934Z,1.54
2018-12-24T07:28:58.753Z,1.96
2018-12-24T07:31:20.439Z,1.78
2018-12-24T07:33:48.094Z,2.04
2018-12-24T07:36:16.979Z,1.89
2018-12-24T07:38:44.947Z,1.86
2018-12-24T07:41:11.958Z,1.88
2018-12-24T07:43:39.662Z,2.00
2018-12-24T07:46:07.320Z,1.97
2018-12-24T07:48:35.258Z,1.83
2018-12-24T07:51:02.951Z,1.98
2018-12-24T07:53:31.635Z,1.93
2018-12-24T07:55:58.990Z,2.25
2018-12-24T07:58:26.652Z,1.99
2018-12-24T08:00:54.311Z,2.37
2018-12-24T08:03:23.310Z,2.31
2018-12-24T08:05:50.677Z,2.42
2018-12-24T08:08:18.043Z,2.51
2018-12-24T08:10:45.678Z,2.49
2018-12-24T08:13:12.706Z,2.39
2018-12-24T08:15:40.693Z,2.10
2018-12-24T08:18:08.969Z,2.34
2018-12-24T08:20:36.310Z,2.23
2018-12-24T08:23:03.981Z,2.15
2018-12-24T08:25:31.949Z,2.29
2018-12-24T08:27:59.319Z,2.47
2018-12-24T08:30:26.342Z,2.47
2018-12-24T08:32:53.854Z,2.38
2018-12-24T08:35:22.686Z,2.39
2018-12-24T08:37:50.565Z,2.53
2018-12-24T08:40:17.927Z,2.38
2018-12-24T08:42:46.711Z,2.50
2018-12-24T08:45:14.361Z,2.62
2018-12-24T08:47:41.725Z,2.54
2018-12-24T08:50:09.386Z,2.57
2018-12-24T08:52:37.050Z,2.50
2018-12-24T08:55:04.710Z,2.41
2018-12-24T08:57:32.066Z,2.64
2018-12-24T08:59:59.426Z,2.52
2018-12-24T09:02:27.094Z,2.57
2018-12-24T09:04:55.051Z,2.55
2018-12-24T09:07:22.710Z,2.64
2018-12-24T09:09:50.166Z,2.66
2018-12-24T09:12:17.500Z,2.50
2018-12-24T09:14:50.185Z,2.59
2018-12-24T09:17:14.691Z,2.14
2018-12-24T09:19:42.658Z,2.17
2018-12-24T09:22:10.010Z,2.20
2018-12-24T09:24:37.682Z,2.52
2018-12-24T09:27:05.018Z,2.48
2018-12-24T09:29:32.791Z,2.80
2018-12-24T09:32:00.455Z,2.91
2018-12-24T09:34:27.806Z,3.09
2018-12-24T09:36:55.471Z,2.96
2018-12-24T09:39:23.279Z,2.84
2018-12-24T09:41:50.897Z,2.45
2018-12-24T09:44:18.822Z,2.70
2018-12-24T09:46:46.121Z,2.43
2018-12-24T09:49:13.477Z,2.36
2018-12-24T09:51:40.498Z,2.66
2018-12-24T09:54:07.879Z,2.87
2018-12-24T09:56:35.637Z,2.86
2018-12-24T09:59:02.991Z,2.45
2018-12-24T10:01:30.651Z,2.36
2018-12-24T10:04:03.020Z,2.86
2018-12-24T10:06:34.537Z,2.58
2018-12-24T10:09:07.110Z,2.91
2018-12-24T10:11:34.407Z,2.91
2018-12-24T10:14:01.426Z,2.95
2018-12-24T10:16:29.290Z,2.75
2018-12-24T10:18:56.570Z,3.09
2018-12-24T10:21:23.621Z,3.32
2018-12-24T10:23:50.982Z,3.36
2018-12-24T10:26:18.012Z,3.11
2018-12-24T10:28:45.074Z,3.06
2018-12-24T10:31:12.830Z,2.94
2018-12-24T10:33:40.800Z,3.17
2018-12-24T10:36:08.155Z,3.05
2018-12-24T10:38:35.563Z,2.90
2018-12-24T10:41:08.087Z,2.76
2018-12-24T10:43:35.470Z,3.02
2018-12-24T10:46:02.815Z,2.94
2018-12-24T10:48:30.152Z,2.72
2018-12-24T10:50:57.182Z,2.76
2018-12-24T10:53:25.471Z,2.93
2018-12-24T10:55:52.836Z,3.02
2018-12-24T10:58:20.822Z,3.11
2018-12-24T11:00:48.150Z,3.22
2018-12-24T11:03:16.121Z,3.54
2018-12-24T11:05:45.111Z,3.28
2018-12-24T11:08:12.134Z,3.56
2018-12-24T11:10:40.127Z,3.03
2018-12-24T11:13:08.215Z,3.21
2018-12-24T11:15:35.838Z,3.04
2018-12-24T11:18:03.626Z,3.26
2018-12-24T11:20:31.285Z,3.46
2018-12-24T11:22:59.054Z,3.51
2018-12-24T11:25:26.438Z,4.01
2018-12-24T11:27:53.759Z,4.04
2018-12-24T11:30:22.040Z,4.10
2018-12-24T11:32:49.694Z,3.86
2018-12-24T11:35:17.662Z,3.82
2018-12-24T11:37:45.978Z,4.05
2018-12-24T11:40:13.538Z,3.97
2018-12-24T11:42:41.162Z,3.96
2018-12-24T11:45:10.155Z,3.98
2018-12-24T11:47:37.509Z,3.80
2018-12-24T11:50:05.278Z,3.47
2018-12-24T11:52:32.650Z,3.68
2018-12-24T11:54:59.981Z,3.78
2018-12-24T11:57:27.950Z,3.71
2018-12-24T11:59:54.968Z,3.51
2018-12-24T12:02:22.287Z,3.61
2018-12-24T12:04:50.219Z,3.32
2018-12-24T12:07:18.190Z,3.49
2018-12-24T12:09:46.190Z,3.52
2018-12-24T12:12:13.547Z,3.57
2018-12-24T12:14:40.867Z,3.78
2018-12-24T12:17:08.527Z,3.62
2018-12-24T12:19:35.904Z,3.76
2018-12-24T12:22:03.338Z,3.92
2018-12-24T12:24:30.718Z,3.61
2018-12-24T12:26:58.045Z,3.80
2018-12-24T12:29:25.090Z,3.87
2018-12-24T12:31:52.474Z,3.67
2018-12-24T12:34:20.111Z,3.76
2018-12-24T12:36:47.570Z,4.08
2018-12-24T12:39:15.234Z,3.95
2018-12-24T12:41:42.581Z,3.91
2018-12-24T12:44:10.335Z,3.99
2018-12-24T12:46:38.008Z,3.97
2018-12-24T12:49:05.372Z,3.78
2018-12-24T12:51:33.534Z,3.81
2018-12-24T12:54:00.567Z,3.88
2018-12-24T12:56:27.938Z,3.97
2018-12-24T12:58:55.602Z,3.92
2018-12-24T13:01:23.263Z,4.10
2018-12-24T13:03:50.666Z,4.04
2018-12-24T13:06:17.694Z,4.10
2018-12-24T13:08:45.014Z,4.11
2018-12-24T13:11:12.395Z,4.39
2018-12-24T13:13:39.769Z,4.16
2018-12-24T13:16:06.791Z,4.10
2018-12-24T13:18:33.865Z,4.16
2018-12-24T13:21:01.484Z,4.36
2018-12-24T13:23:29.251Z,4.35
2018-12-24T13:25:56.603Z,4.40
2018-12-24T13:28:24.261Z,4.46
2018-12-24T13:30:51.940Z,4.41
2018-12-24T13:33:19.900Z,4.51
2018-12-24T13:35:46.921Z,4.58
2018-12-24T13:38:14.909Z,4.67
2018-12-24T13:40:42.570Z,4.52
2018-12-24T13:43:10.335Z,4.56
2018-12-24T13:45:38.302Z,4.53
2018-12-24T13:48:06.782Z,4.55
2018-12-24T13:50:34.546Z,4.65
2018-12-24T13:53:02.210Z,4.68
2018-12-24T13:55:29.561Z,4.75
2018-12-24T13:57:57.315Z,4.99
2018-12-24T14:00:24.781Z,4.75
2018-12-24T14:02:52.170Z,4.86
2018-12-24T14:05:19.621Z,4.72
2018-12-24T14:07:46.951Z,4.64
2018-12-24T14:10:14.310Z,4.97
2018-12-24T14:12:41.706Z,4.83
2018-12-24T14:15:09.325Z,4.89
2018-12-24T14:17:37.391Z,4.84
2018-12-24T14:20:05.567Z,4.80
2018-12-24T14:22:33.485Z,4.85
2018-12-24T14:25:00.891Z,4.85
2018-12-24T14:27:28.650Z,4.81
2018-12-24T14:29:56.012Z,4.71
2018-12-24T14:32:23.671Z,4.85
2018-12-24T14:34:51.433Z,4.77
2018-12-24T14:37:19.198Z,4.75
2018-12-24T14:39:46.789Z,4.71
2018-12-24T14:42:14.110Z,4.82
2018-12-24T14:44:42.285Z,4.90
2018-12-24T14:47:11.062Z,4.95
2018-12-24T14:49:38.791Z,4.94
2018-12-24T14:52:06.806Z,4.89
2018-12-24T14:54:34.775Z,4.92
2018-12-24T14:57:02.537Z,4.91
2018-12-24T14:59:29.898Z,4.95
2018-12-24T15:01:57.556Z,4.88
2018-12-24T15:04:25.219Z,5.00
2018-12-24T15:06:52.971Z,4.99
2018-12-24T15:09:20.334Z,5.08
2018-12-24T15:11:47.727Z,5.17
2018-12-24T15:14:15.043Z,5.15
2018-12-24T15:16:42.499Z,5.19
2018-12-24T15:19:09.860Z,5.28
2018-12-24T15:21:36.875Z,5.21
2018-12-24T15:24:04.260Z,5.38
2018-12-24T15:26:32.532Z,5.35
2018-12-24T15:29:01.419Z,5.48
2018-12-24T15:31:29.189Z,5.58
2018-12-24T15:33:56.538Z,5.73
2018-12-24T15:36:23.901Z,5.53
2018-12-24T15:38:51.554Z,5.66
2018-12-24T15:41:19.522Z,5.62
2018-12-24T15:43:58.538Z,5.62
2018-12-24T15:46:26.216Z,5.73
2018-12-24T15:48:53.259Z,5.60
2018-12-24T15:51:20.928Z,5.70
2018-12-24T15:53:48.558Z,5.63
2018-12-24T15:56:16.441Z,5.71
2018-12-24T15:58:44.727Z,5.77
2018-12-24T16:01:12.320Z,5.68
2018-12-24T16:03:40.790Z,5.64
2018-12-24T16:06:08.537Z,5.65
2018-12-24T16:08:35.930Z,5.64
2018-12-24T16:11:03.550Z,5.45
2018-12-24T16:13:30.585Z,5.45
2018-12-24T16:15:58.362Z,5.43
2018-12-24T16:18:26.018Z,5.41
2018-12-24T16:20:53.789Z,5.31
2018-12-24T16:23:21.502Z,5.20
2018-12-24T16:25:49.382Z,5.14
2018-12-24T16:28:17.178Z,5.16
2018-12-24T16:30:45.151Z,5.12
2018-12-24T16:33:13.123Z,5.00
2018-12-24T16:35:40.766Z,5.02
2018-12-24T16:38:08.458Z,4.88
2018-12-24T16:40:35.478Z,4.91
2018-12-24T16:43:03.658Z,4.91
2018-12-24T16:45:31.050Z,4.87
2018-12-24T16:47:58.676Z,4.87
2018-12-24T16:50:26.031Z,4.92
2018-12-24T16:52:53.999Z,4.79
2018-12-24T16:55:22.069Z,4.79
2018-12-24T16:57:49.993Z,4.79
2018-12-24T17:00:17.802Z,4.77
2018-12-24T17:02:46.764Z,4.81
2018-12-24T17:05:14.666Z,4.68
2018-12-24T17:07:42.844Z,4.71
2018-12-24T17:10:11.417Z,4.70
2018-12-24T17:12:39.491Z,4.76
2018-12-24T17:15:06.846Z,4.73
2018-12-24T17:17:34.699Z,4.68
2018-12-24T17:20:02.346Z,4.63
2018-12-24T17:22:30.139Z,4.65
2018-12-24T17:24:57.801Z,4.57
2018-12-24T17:27:25.451Z,4.65
2018-12-24T17:29:52.814Z,4.71
2018-12-24T17:32:20.574Z,4.55
2018-12-24T17:34:48.258Z,4.68
2018-12-24T17:37:16.217Z,4.71
2018-12-24T17:39:43.583Z,4.59
2018-12-24T17:42:11.837Z,4.65
2018-12-24T17:44:39.195Z,4.62
2018-12-24T17:47:06.239Z,4.64
2018-12-24T17:49:34.929Z,4.65
2018-12-24T17:52:02.598Z,4.68
2018-12-24T17:54:29.634Z,4.70
2018-12-24T17:56:57.009Z,4.51
2018-12-24T17:59:24.391Z,4.61
2018-12-24T18:01:51.999Z,4.53
2018-12-24T18:04:19.979Z,4.41
2018-12-24T18:06:51.737Z,4.37
2018-12-24T18:09:19.089Z,4.43
2018-12-24T18:11:46.750Z,4.34
2018-12-24T18:14:14.679Z,4.33
2018-12-24T18:16:42.074Z,4.29
2018-12-24T18:19:09.734Z,4.22
2018-12-24T18:21:37.809Z,4.27
2018-12-24T18:24:05.160Z,4.22
2018-12-24T18:26:32.925Z,4.20
2018-12-24T18:29:00.285Z,4.15
2018-12-24T18:31:28.249Z,4.14
2018-12-24T18:33:55.906Z,4.21
2018-12-24T18:36:23.671Z,4.15
2018-12-24T18:38:50.711Z,4.16
2018-12-24T18:41:18.787Z,4.05
2018-12-24T18:43:46.554Z,4.08
2018-12-24T18:46:13.906Z,4.20
2018-12-24T18:48:41.261Z,4.11
2018-12-24T18:51:08.664Z,4.05
2018-12-24T18:53:36.275Z,4.16
2018-12-24T18:56:03.316Z,4.20
2018-12-24T18:58:31.297Z,4.05
2018-12-24T19:00:59.263Z,4.14
2018-12-24T19:03:26.783Z,4.14
2018-12-24T19:05:54.485Z,4.22
2018-12-24T19:08:22.553Z,4.26
2018-12-24T19:10:49.602Z,4.40
2018-12-24T19:13:17.467Z,4.61
2018-12-24T19:15:45.408Z,4.44
2018-12-24T19:18:13.202Z,4.57
2018-12-24T19:20:41.276Z,4.58
2018-12-24T19:23:08.627Z,4.56
2018-12-24T19:25:36.285Z,4.67
2018-12-24T19:28:03.637Z,4.64
2018-12-24T19:30:30.998Z,4.75
2018-12-24T19:32:58.963Z,4.60
2018-12-24T19:35:26.931Z,4.57
2018-12-24T19:37:54.289Z,4.60
2018-12-24T19:40:21.317Z,4.66
2018-12-24T19:42:48.987Z,4.46
2018-12-24T19:45:16.660Z,4.66
2018-12-24T19:47:49.798Z,4.70
2018-12-24T19:50:13.923Z,4.71
2018-12-24T19:52:41.894Z,4.74
2018-12-24T19:55:09.751Z,4.70
2018-12-24T19:57:37.834Z,4.72
2018-12-24T20:00:05.685Z,4.75
2018-12-24T20:02:34.794Z,4.75
2018-12-24T20:05:01.834Z,4.81
2018-12-24T20:07:29.918Z,4.66
2018-12-24T20:09:57.609Z,4.69
2018-12-24T20:12:25.234Z,4.73
2018-12-24T20:14:52.590Z,4.53
2018-12-24T20:17:20.558Z,4.49
2018-12-24T20:19:48.838Z,4.49
2018-12-24T20:22:16.706Z,4.35
2018-12-24T20:24:44.367Z,4.33
2018-12-24T20:27:11.645Z,4.46
2018-12-24T20:29:39.015Z,4.52
2018-12-24T20:32:06.347Z,4.53
2018-12-24T20:34:34.603Z,4.35
2018-12-24T20:37:02.478Z,4.44
2018-12-24T20:39:29.847Z,4.49
2018-12-24T20:41:56.877Z,4.49
2018-12-24T20:44:23.917Z,4.54
2018-12-24T20:46:51.578Z,4.51
2018-12-24T20:49:19.443Z,4.44
2018-12-24T20:51:46.899Z,4.59
2018-12-24T20:54:14.574Z,4.68
2018-12-24T20:56:42.628Z,4.71
2018-12-24T20:59:10.708Z,4.69
2018-12-24T21:01:38.368Z,4.76
2018-12-24T21:04:05.724Z,4.83
2018-12-24T21:06:33.511Z,4.81
2018-12-24T21:09:04.007Z,4.88
2018-12-24T21:11:31.779Z,4.90
2018-12-24T21:13:59.438Z,4.90
2018-12-24T21:16:26.494Z,5.04
2018-12-24T21:18:53.521Z,5.00
2018-12-24T21:21:23.051Z,5.09
2018-12-24T21:23:50.726Z,4.95
2018-12-24T21:26:18.360Z,5.10
2018-12-24T21:28:46.128Z,5.00
2018-12-24T21:31:13.516Z,5.03
2018-12-24T21:33:40.952Z,5.13
2018-12-24T21:36:09.828Z,5.12
2018-12-24T21:38:37.793Z,5.12
2018-12-24T21:41:06.275Z,5.19
2018-12-24T21:43:33.643Z,5.18
2018-12-24T21:46:00.982Z,5.14
2018-12-24T21:48:28.782Z,5.26
2018-12-24T21:50:56.326Z,5.24
2018-12-24T21:53:23.350Z,5.21
2018-12-24T21:55:52.725Z,5.23
2018-12-24T21:58:21.051Z,5.15
2018-12-24T22:00:48.786Z,5.18
2018-12-24T22:03:16.483Z,5.32
2018-12-24T22:05:43.907Z,5.35
2018-12-24T22:08:10.967Z,5.41
2018-12-24T22:10:38.622Z,5.35
2018-12-24T22:13:06.662Z,5.47
2018-12-24T22:15:34.275Z,5.27
2018-12-24T22:18:03.253Z,5.17
2018-12-24T22:20:30.604Z,5.24
2018-12-24T22:22:57.639Z,5.23
2018-12-24T22:25:25.417Z,5.16
2018-12-24T22:27:53.094Z,5.26
2018-12-24T22:30:20.532Z,5.28
2018-12-24T22:32:48.198Z,5.17
2018-12-24T22:35:15.565Z,5.16
2018-12-24T22:37:43.358Z,5.35
2018-12-24T22:40:10.418Z,5.33
2018-12-24T22:42:38.634Z,5.26
2018-12-24T22:45:06.189Z,5.29
2018-12-24T22:47:33.854Z,5.35
2018-12-24T22:50:01.835Z,5.33
2018-12-24T22:52:29.620Z,5.35
2018-12-24T22:54:57.747Z,5.22
2018-12-24T22:57:25.134Z,5.38
2018-12-24T22:59:52.984Z,5.44
2018-12-24T23:02:20.334Z,5.31
2018-12-24T23:04:47.713Z,5.30
2018-12-24T23:07:15.758Z,5.47
2018-12-24T23:09:43.426Z,5.43
2018-12-24T23:12:11.188Z,5.35
2018-12-24T23:14:38.846Z,5.28
2018-12-24T23:17:06.514Z,5.25
2018-12-24T23:19:33.879Z,5.31
2018-12-24T23:22:01.838Z,5.29
2018-12-24T23:24:29.186Z,5.30
2018-12-24T23:26:56.858Z,5.27
2018-12-24T23:29:25.966Z,5.21
2018-12-24T23:31:53.606Z,5.28
2018-12-24T23:34:20.630Z,5.27
2018-12-24T23:36:48.618Z,5.22
2018-12-24T23:39:16.272Z,5.07
2018-12-24T23:41:45.482Z,5.07
2018-12-24T23:44:12.543Z,5.26
2018-12-24T23:46:40.190Z,5.22
2018-12-24T23:49:08.159Z,5.21
2018-12-24T23:51:35.538Z,5.21
2018-12-24T23:54:02.883Z,5.20
2018-12-24T23:56:29.908Z,5.22
2018-12-24T23:58:57.577Z,5.34
